Terminal Aerodrome Forecast
Issued by NWS Blacksburg, VA

Current Version | Previous Version | Graphics & Text | Print | Product List | Glossary On
Versions: 1 2 3 4 5 6 7 8 9 10 11 12 13 14 15 16 17 18 19 20 21 22 23 24 25 26 27 28 29 30 31 32
468
FTUS41 KRNK 101020 AAA
TAFBLF
TAF AMD
KBLF 101020Z 1010/1106 31012G22KT P6SM -SHSN OVC015
      TEMPO 1010/1014 4SM -SHSN BR OVC007
     FM101500 28012G22KT P6SM BKN040
     FM102000 27012KT P6SM SCT045=

USA.gov is the U.S. government's official web portal to all federal, state and local government web resources and services.